createdAt,value
2023-02-25T00:02:04.753Z,1.80
2023-02-25T00:04:31.713Z,1.93
2023-02-25T00:06:58.325Z,3.33
2023-02-25T00:09:24.884Z,1.60
2023-02-25T00:11:51.446Z,1.77
2023-02-25T00:14:18.280Z,2.93
2023-02-25T00:16:46.234Z,0.30
2023-02-25T00:19:12.792Z,1.73
2023-02-25T00:21:39.342Z,0.20
2023-02-25T00:24:16.031Z,1.37
2023-02-25T00:26:43.354Z,1.23
2023-02-25T00:29:10.057Z,1.20
2023-02-25T00:31:36.722Z,1.63
2023-02-25T00:34:04.709Z,1.17
2023-02-25T00:36:31.257Z,2.17
2023-02-25T00:38:58.065Z,0.80
2023-02-25T00:41:26.879Z,0.90
2023-02-25T00:43:55.205Z,0.95
2023-02-25T00:46:22.988Z,0.90
2023-02-25T00:48:50.659Z,0.50
2023-02-25T00:51:21.207Z,1.10
2023-02-25T00:53:48.315Z,0.80
2023-02-25T00:56:16.449Z,1.50
2023-02-25T00:58:43.942Z,1.67
2023-02-25T01:01:17.880Z,1.17
2023-02-25T01:03:44.419Z,0.53
2023-02-25T01:06:11.643Z,0.30
2023-02-25T01:08:39.603Z,0.90
2023-02-25T01:11:11.428Z,0.73
2023-02-25T01:13:38.012Z,0.97
2023-02-25T01:16:10.683Z,1.00
2023-02-25T01:18:37.260Z,1.17
2023-02-25T01:21:04.043Z,0.70
2023-02-25T01:23:30.601Z,0.73
2023-02-25T01:25:58.500Z,1.00
2023-02-25T01:28:25.042Z,1.63
2023-02-25T01:30:51.705Z,0.70
2023-02-25T01:33:18.311Z,1.93
2023-02-25T01:35:44.856Z,1.47
2023-02-25T01:38:11.411Z,0.80
2023-02-25T01:40:37.958Z,0.73
2023-02-25T01:43:07.786Z,1.30
2023-02-25T01:45:34.859Z,0.60
2023-02-25T01:48:09.707Z,0.40
2023-02-25T01:50:42.445Z,0.40
2023-02-25T01:53:09.794Z,0.10
2023-02-25T01:55:38.830Z,1.10
2023-02-25T01:58:09.286Z,1.73
2023-02-25T02:00:36.473Z,0.70
2023-02-25T02:03:04.043Z,1.53
2023-02-25T02:05:42.586Z,0.10
2023-02-25T02:08:10.089Z,0.00
2023-02-25T02:10:36.677Z,0.20
2023-02-25T02:13:03.463Z,0.00
2023-02-25T02:15:35.538Z,0.30
2023-02-25T02:18:03.817Z,0.30
2023-02-25T02:20:39.144Z,0.43
2023-02-25T02:23:44.493Z,0.20
2023-02-25T02:26:28.871Z,0.57
2023-02-25T02:29:20.536Z,0.50
2023-02-25T02:32:00.229Z,0.20
2023-02-25T02:37:12.754Z,0.23
2023-02-25T02:39:49.612Z,0.20
2023-02-25T02:42:27.257Z,0.43
2023-02-25T02:45:02.372Z,0.30
2023-02-25T02:47:34.541Z,0.33
2023-02-25T02:50:04.573Z,0.10
2023-02-25T02:52:35.180Z,0.20
2023-02-25T02:55:05.820Z,0.30
2023-02-25T02:57:36.784Z,0.40
2023-02-25T03:00:18.344Z,0.30
2023-02-25T03:02:51.355Z,0.40
2023-02-25T03:05:18.661Z,0.37
2023-02-25T03:07:52.079Z,0.13
2023-02-25T03:10:22.466Z,0.40
2023-02-25T03:12:49.176Z,0.50
2023-02-25T03:15:16.030Z,0.20
2023-02-25T03:17:46.200Z,1.67
2023-02-25T03:20:20.742Z,0.43
2023-02-25T03:22:50.096Z,0.20
2023-02-25T03:25:21.010Z,0.30
2023-02-25T03:27:49.458Z,0.73
2023-02-25T03:30:21.629Z,0.23
2023-02-25T03:32:51.671Z,0.53
2023-02-25T03:35:21.738Z,0.20
2023-02-25T03:37:51.175Z,0.70
2023-02-25T03:40:21.160Z,0.35
2023-02-25T03:42:54.037Z,0.40
2023-02-25T03:45:21.880Z,0.63
2023-02-25T03:47:48.944Z,0.53
2023-02-25T03:50:21.252Z,0.30
2023-02-25T03:52:48.064Z,0.50
2023-02-25T03:55:16.836Z,0.40
2023-02-25T03:57:45.594Z,0.10
2023-02-25T04:00:19.031Z,0.10
2023-02-25T04:02:46.988Z,0.10
2023-02-25T04:05:14.701Z,0.10
2023-02-25T04:07:42.989Z,0.30
2023-02-25T04:10:12.238Z,0.20
2023-02-25T04:12:39.205Z,2.10
2023-02-25T04:15:07.595Z,0.20
2023-02-25T04:17:34.874Z,0.40
2023-02-25T04:20:01.641Z,0.20
2023-02-25T04:22:28.213Z,0.20
2023-02-25T04:24:56.165Z,0.30
2023-02-25T04:27:22.721Z,0.50
2023-02-25T04:29:49.269Z,0.30
2023-02-25T04:32:15.950Z,0.40
2023-02-25T04:34:42.600Z,0.30
2023-02-25T04:37:09.985Z,0.03
2023-02-25T04:39:37.026Z,0.10
2023-02-25T04:42:05.136Z,0.20
2023-02-25T04:44:31.722Z,0.10
2023-02-25T04:46:58.257Z,0.33
2023-02-25T04:49:24.949Z,0.23
2023-02-25T04:51:52.037Z,0.10
2023-02-25T04:54:18.734Z,0.57
2023-02-25T04:56:45.341Z,0.20
2023-02-25T04:59:13.808Z,0.10
2023-02-25T05:01:40.798Z,0.10
2023-02-25T05:04:07.642Z,0.40
2023-02-25T05:06:34.718Z,0.20
2023-02-25T05:09:02.010Z,0.10
2023-02-25T05:11:29.553Z,0.20
2023-02-25T05:13:57.132Z,0.10
2023-02-25T05:16:26.478Z,0.10
2023-02-25T05:18:53.389Z,0.38
2023-02-25T05:21:22.581Z,0.20
2023-02-25T05:23:50.787Z,0.30
2023-02-25T05:26:23.200Z,0.50
2023-02-25T05:28:50.989Z,0.40
2023-02-25T05:31:18.151Z,0.23
2023-02-25T05:33:47.440Z,0.13
2023-02-25T05:36:16.004Z,0.30
2023-02-25T05:38:43.636Z,0.70
2023-02-25T05:41:11.583Z,0.20
2023-02-25T05:43:39.549Z,0.90
2023-02-25T05:46:11.510Z,0.23
2023-02-25T05:48:39.803Z,0.30
2023-02-25T05:51:10.352Z,0.57
2023-02-25T05:53:37.605Z,0.30
2023-02-25T05:56:05.970Z,0.70
2023-02-25T05:58:32.808Z,0.30
2023-02-25T06:00:59.698Z,0.30
2023-02-25T06:03:26.425Z,0.60
2023-02-25T06:05:53.374Z,0.70
2023-02-25T06:08:21.276Z,1.57
2023-02-25T06:10:48.461Z,0.40
2023-02-25T06:13:15.036Z,0.30
2023-02-25T06:15:43.362Z,1.60
2023-02-25T06:18:10.219Z,0.10
2023-02-25T06:20:36.965Z,0.40
2023-02-25T06:23:04.068Z,0.77
2023-02-25T06:25:32.024Z,0.20
2023-02-25T06:27:58.924Z,0.30
2023-02-25T06:30:26.250Z,1.03
2023-02-25T06:32:53.075Z,0.40
2023-02-25T06:35:23.322Z,0.50
2023-02-25T06:37:50.341Z,0.30
2023-02-25T06:40:17.634Z,0.27
2023-02-25T06:42:45.570Z,0.20
2023-02-25T06:45:12.145Z,0.20
2023-02-25T06:47:38.857Z,0.27
2023-02-25T06:50:06.622Z,0.20
2023-02-25T06:52:33.392Z,0.80
2023-02-25T06:54:59.951Z,0.80
2023-02-25T06:57:26.564Z,0.30
2023-02-25T06:59:54.471Z,6.07
2023-02-25T07:02:21.022Z,0.10
2023-02-25T07:04:47.666Z,0.40
2023-02-25T07:07:14.238Z,0.30
2023-02-25T07:09:40.829Z,2.00
2023-02-25T07:12:07.617Z,0.70
2023-02-25T07:14:34.174Z,0.60
2023-02-25T07:17:03.773Z,0.40
2023-02-25T07:19:30.587Z,0.30
2023-02-25T07:21:57.407Z,0.40
2023-02-25T07:24:24.406Z,0.60
2023-02-25T07:26:50.991Z,0.63
2023-02-25T07:29:17.514Z,0.70
2023-02-25T07:31:45.407Z,0.70
2023-02-25T07:34:14.271Z,0.33
2023-02-25T07:36:40.985Z,0.80
2023-02-25T07:39:10.662Z,1.67
2023-02-25T07:44:04.767Z,0.70
2023-02-25T07:46:31.831Z,1.63
2023-02-25T07:48:58.491Z,0.43
2023-02-25T07:51:26.864Z,0.43
2023-02-25T07:53:55.565Z,0.57
2023-02-25T07:56:23.811Z,0.30
2023-02-25T07:58:50.580Z,0.20
2023-02-25T08:01:19.828Z,0.60
2023-02-25T08:03:49.306Z,0.95
2023-02-25T08:06:15.865Z,0.55
2023-02-25T08:08:43.802Z,0.30
2023-02-25T08:11:13.028Z,0.60
2023-02-25T08:13:41.292Z,0.32
2023-02-25T08:16:09.909Z,0.50
2023-02-25T08:18:36.797Z,0.90
2023-02-25T08:21:04.474Z,0.57
2023-02-25T08:23:31.155Z,1.30
2023-02-25T08:25:59.976Z,1.43
2023-02-25T08:28:32.638Z,2.05
2023-02-25T08:31:00.625Z,1.40
2023-02-25T08:33:28.060Z,2.00
2023-02-25T08:35:54.661Z,2.30
2023-02-25T08:38:21.359Z,2.70
2023-02-25T08:40:48.010Z,8.60
2023-02-25T08:43:15.919Z,5.07
2023-02-25T08:45:42.637Z,2.80
2023-02-25T08:48:09.850Z,3.47
2023-02-25T08:50:36.504Z,4.57
2023-02-25T08:53:03.070Z,12.23
2023-02-25T08:55:29.606Z,11.20
2023-02-25T08:57:56.245Z,10.43
2023-02-25T09:00:25.255Z,7.27
2023-02-25T09:02:51.840Z,4.50
2023-02-25T09:05:20.641Z,3.30
2023-02-25T09:07:47.426Z,2.97
2023-02-25T09:10:14.043Z,3.40
2023-02-25T09:12:42.266Z,10.27
2023-02-25T09:15:10.227Z,7.03
2023-02-25T09:17:38.673Z,5.20
2023-02-25T09:20:11.136Z,5.23
2023-02-25T09:22:40.065Z,5.23
2023-02-25T09:25:07.008Z,5.03
2023-02-25T09:27:33.654Z,5.33
2023-02-25T09:30:00.209Z,5.70
2023-02-25T09:32:26.853Z,6.47
2023-02-25T09:34:54.843Z,7.27
2023-02-25T09:37:21.908Z,5.13
2023-02-25T09:39:48.666Z,5.03
2023-02-25T09:42:19.584Z,5.57
2023-02-25T09:44:48.430Z,4.30
2023-02-25T09:47:21.280Z,4.18
2023-02-25T09:49:53.832Z,6.60
2023-02-25T09:52:28.708Z,6.40
2023-02-25T09:54:59.143Z,4.70
2023-02-25T09:57:25.987Z,6.27
2023-02-25T09:59:55.956Z,4.53
2023-02-25T10:02:29.669Z,4.13
2023-02-25T10:05:14.752Z,4.97
2023-02-25T10:07:53.536Z,5.73
2023-02-25T10:10:27.381Z,6.88
2023-02-25T10:13:00.756Z,4.73
2023-02-25T10:15:51.887Z,3.20
2023-02-25T10:18:29.126Z,5.53
2023-02-25T10:21:08.560Z,5.77
2023-02-25T10:24:00.203Z,4.38
2023-02-25T10:26:32.440Z,6.30
2023-02-25T10:29:04.132Z,3.37
2023-02-25T10:31:32.003Z,5.80
2023-02-25T10:34:13.467Z,3.97
2023-02-25T10:36:44.556Z,4.27
2023-02-25T10:39:12.450Z,4.17
2023-02-25T10:41:39.130Z,3.53
2023-02-25T10:44:06.450Z,4.50
2023-02-25T10:46:37.015Z,2.70
2023-02-25T10:49:16.207Z,5.10
2023-02-25T10:51:58.100Z,5.22
2023-02-25T10:54:26.078Z,6.13
2023-02-25T10:56:53.336Z,6.33
2023-02-25T10:59:28.034Z,5.57
2023-02-25T11:01:56.448Z,3.30
2023-02-25T11:04:25.202Z,4.63
2023-02-25T11:06:51.784Z,6.50
2023-02-25T11:09:33.280Z,7.80
2023-02-25T11:12:08.689Z,5.40
2023-02-25T11:14:39.983Z,9.87
2023-02-25T11:17:14.571Z,5.20
2023-02-25T11:19:44.153Z,4.73
2023-02-25T11:22:17.426Z,2.40
2023-02-25T11:24:59.506Z,2.70
2023-02-25T11:27:33.725Z,4.67
2023-02-25T11:30:05.475Z,5.83
2023-02-25T11:32:33.663Z,3.23
2023-02-25T11:35:08.795Z,3.73
2023-02-25T11:37:38.612Z,4.33
2023-02-25T11:40:23.173Z,3.37
2023-02-25T11:43:13.647Z,3.47
2023-02-25T11:45:49.119Z,6.20
2023-02-25T11:48:20.262Z,6.57
2023-02-25T11:50:54.989Z,5.27
2023-02-25T11:53:36.109Z,3.50
2023-02-25T11:56:09.347Z,7.27
2023-02-25T11:58:47.335Z,2.17
2023-02-25T12:01:21.244Z,2.80
2023-02-25T12:04:02.439Z,2.80
2023-02-25T12:06:45.425Z,2.37
2023-02-25T12:09:41.093Z,4.03
2023-02-25T12:12:33.411Z,4.23
2023-02-25T12:15:24.343Z,4.70
2023-02-25T12:18:24.282Z,3.57
2023-02-25T12:21:19.740Z,3.23
2023-02-25T12:24:15.548Z,5.73
2023-02-25T12:27:02.932Z,3.47
2023-02-25T12:29:52.488Z,5.13
2023-02-25T12:32:40.283Z,3.22
2023-02-25T12:35:39.957Z,4.40
2023-02-25T12:41:05.800Z,3.53
2023-02-25T12:43:43.090Z,8.57
2023-02-25T12:46:21.298Z,7.53
2023-02-25T12:49:22.420Z,4.37
2023-02-25T12:52:03.422Z,3.73
2023-02-25T12:55:14.800Z,4.40
2023-02-25T12:57:50.313Z,3.87
2023-02-25T13:00:37.317Z,7.83
2023-02-25T13:03:21.208Z,4.60
2023-02-25T13:06:25.990Z,6.90
2023-02-25T13:09:07.218Z,7.83
2023-02-25T13:12:09.900Z,3.97
2023-02-25T13:14:40.573Z,6.57
2023-02-25T13:17:32.527Z,4.27
2023-02-25T13:20:29.740Z,4.73
2023-02-25T13:23:11.874Z,4.67
2023-02-25T13:25:53.136Z,6.10
2023-02-25T13:28:42.301Z,3.60
2023-02-25T13:31:16.298Z,4.65
2023-02-25T13:34:01.634Z,5.37
2023-02-25T13:36:42.879Z,5.50
2023-02-25T13:39:28.864Z,3.50
2023-02-25T13:42:17.818Z,3.70
2023-02-25T13:45:20.302Z,5.20
2023-02-25T13:47:57.492Z,3.97
2023-02-25T13:50:37.724Z,2.83
2023-02-25T13:53:23.467Z,4.60
2023-02-25T13:56:17.461Z,2.87
2023-02-25T13:58:55.831Z,3.30
2023-02-25T14:01:33.316Z,4.07
2023-02-25T14:04:19.193Z,4.40
2023-02-25T14:07:20.056Z,3.03
2023-02-25T14:09:59.456Z,3.27
2023-02-25T14:12:38.973Z,5.97
2023-02-25T14:15:21.498Z,2.40
2023-02-25T14:18:15.056Z,3.77
2023-02-25T14:20:55.401Z,3.73
2023-02-25T14:23:34.963Z,4.80
2023-02-25T14:26:22.885Z,2.47
2023-02-25T14:29:04.520Z,3.77
2023-02-25T14:31:40.122Z,3.90
2023-02-25T14:34:32.609Z,3.80
2023-02-25T14:37:15.345Z,3.27
2023-02-25T14:40:15.474Z,5.17
2023-02-25T14:43:15.945Z,4.87
2023-02-25T14:45:50.264Z,2.57
2023-02-25T14:48:22.696Z,3.03
2023-02-25T14:50:53.808Z,3.07
2023-02-25T14:54:00.794Z,5.63
2023-02-25T14:56:48.890Z,2.73
2023-02-25T14:59:53.499Z,3.23
2023-02-25T15:02:33.858Z,2.40
2023-02-25T15:05:38.548Z,2.73
2023-02-25T15:08:30.436Z,2.13
2023-02-25T15:11:31.059Z,4.13
2023-02-25T15:14:21.989Z,3.30
2023-02-25T15:17:24.142Z,3.90
2023-02-25T15:20:22.162Z,4.50
2023-02-25T15:23:07.534Z,2.53
2023-02-25T15:25:38.737Z,4.20
2023-02-25T15:28:36.995Z,3.30
2023-02-25T15:31:10.923Z,3.40
2023-02-25T15:33:40.668Z,3.77
2023-02-25T15:38:58.665Z,2.87
2023-02-25T15:41:57.652Z,2.93
2023-02-25T15:44:36.117Z,5.88
2023-02-25T15:47:26.535Z,3.60
2023-02-25T15:49:56.954Z,4.57
2023-02-25T15:52:58.100Z,4.33
2023-02-25T15:55:34.990Z,4.77
2023-02-25T15:58:01.797Z,4.07
2023-02-25T16:01:01.627Z,3.77
2023-02-25T16:03:42.012Z,4.43
2023-02-25T16:06:16.488Z,4.93
2023-02-25T16:08:49.841Z,3.53
2023-02-25T16:11:25.249Z,2.77
2023-02-25T16:13:53.153Z,3.57
2023-02-25T16:16:21.792Z,4.37
2023-02-25T16:18:52.156Z,3.30
2023-02-25T16:21:26.926Z,4.57
2023-02-25T16:23:54.588Z,3.83
2023-02-25T16:26:40.054Z,3.40
2023-02-25T16:29:20.587Z,2.43
2023-02-25T16:31:55.997Z,4.13
2023-02-25T16:34:29.756Z,3.77
2023-02-25T16:37:08.485Z,4.00
2023-02-25T16:39:37.048Z,4.30
2023-02-25T16:42:05.550Z,3.70
2023-02-25T16:44:38.899Z,2.97
2023-02-25T16:47:20.117Z,3.73
2023-02-25T16:49:47.516Z,2.77
2023-02-25T16:52:17.917Z,2.70
2023-02-25T16:54:45.966Z,3.57
2023-02-25T16:57:20.405Z,4.63
2023-02-25T16:59:50.498Z,3.10
2023-02-25T17:02:23.631Z,3.27
2023-02-25T17:04:51.795Z,2.63
2023-02-25T17:07:25.178Z,3.90
2023-02-25T17:09:53.830Z,3.67
2023-02-25T17:12:26.050Z,4.23
2023-02-25T17:14:54.036Z,2.13
2023-02-25T17:17:25.326Z,5.50
2023-02-25T17:19:52.337Z,2.33
2023-02-25T17:22:22.450Z,3.30
2023-02-25T17:24:51.122Z,5.07
2023-02-25T17:27:18.883Z,4.40
2023-02-25T17:29:45.680Z,3.37
2023-02-25T17:32:19.138Z,3.67
2023-02-25T17:34:47.378Z,3.90
2023-02-25T17:37:15.954Z,3.90
2023-02-25T17:39:44.943Z,3.20
2023-02-25T17:42:29.754Z,3.83
2023-02-25T17:44:57.061Z,3.27
2023-02-25T17:47:27.332Z,2.90
2023-02-25T17:49:55.297Z,3.10
2023-02-25T17:52:24.374Z,2.80
2023-02-25T17:54:58.365Z,2.38
2023-02-25T17:57:27.560Z,2.53
2023-02-25T17:59:56.760Z,4.65
2023-02-25T18:02:35.533Z,4.88
2023-02-25T18:05:21.473Z,3.25
2023-02-25T18:08:09.170Z,2.80
2023-02-25T18:10:45.881Z,2.10
2023-02-25T18:13:24.882Z,2.50
2023-02-25T18:16:29.698Z,3.53
2023-02-25T18:18:57.343Z,2.67
2023-02-25T18:21:24.230Z,3.37
2023-02-25T18:23:51.522Z,2.63
2023-02-25T18:26:23.939Z,2.47
2023-02-25T18:28:51.309Z,2.40
2023-02-25T18:31:19.543Z,3.47
2023-02-25T18:33:47.652Z,3.13
2023-02-25T18:36:48.438Z,3.30
2023-02-25T18:39:15.226Z,2.53
2023-02-25T18:41:43.139Z,2.07
2023-02-25T18:44:13.302Z,2.83
2023-02-25T18:46:39.905Z,3.10
2023-02-25T18:49:06.594Z,2.40
2023-02-25T18:51:33.205Z,5.13
2023-02-25T18:53:59.817Z,2.30
2023-02-25T18:56:26.592Z,2.20
2023-02-25T18:58:56.510Z,2.77
2023-02-25T19:01:26.496Z,2.57
2023-02-25T19:03:59.179Z,2.67
2023-02-25T19:06:26.574Z,2.30
2023-02-25T19:08:53.186Z,2.90
2023-02-25T19:11:23.077Z,2.43
2023-02-25T19:13:50.528Z,3.87
2023-02-25T19:16:19.209Z,1.77
2023-02-25T19:18:47.254Z,1.43
2023-02-25T19:21:17.677Z,2.93
2023-02-25T19:23:44.463Z,2.63
2023-02-25T19:26:11.760Z,1.77
2023-02-25T19:28:38.505Z,3.17
2023-02-25T19:31:06.725Z,2.97
2023-02-25T19:34:19.962Z,2.37
2023-02-25T19:38:01.384Z,2.43
2023-02-25T19:40:32.159Z,2.67
2023-02-25T19:42:59.060Z,4.80
2023-02-25T19:45:26.825Z,1.90
2023-02-25T19:47:54.671Z,1.97
2023-02-25T19:50:24.767Z,1.90
2023-02-25T19:57:22.111Z,2.23
2023-02-25T19:59:50.372Z,2.30
2023-02-25T20:02:16.996Z,3.43
2023-02-25T20:04:43.806Z,4.33
2023-02-25T20:07:10.391Z,4.70
2023-02-25T20:09:37.025Z,3.53
2023-02-25T20:12:53.302Z,3.73
2023-02-25T20:15:21.285Z,3.00
2023-02-25T20:17:49.005Z,2.87
2023-02-25T20:20:16.311Z,2.87
2023-02-25T20:22:43.358Z,2.30
2023-02-25T20:25:11.286Z,2.87
2023-02-25T20:27:39.739Z,2.70
2023-02-25T20:30:08.141Z,2.57
2023-02-25T20:32:36.195Z,2.77
2023-02-25T20:35:03.385Z,2.17
2023-02-25T20:37:33.631Z,2.00
2023-02-25T20:40:00.819Z,2.27
2023-02-25T20:42:30.063Z,2.07
2023-02-25T20:44:58.474Z,1.58
2023-02-25T20:47:27.296Z,2.00
2023-02-25T20:49:56.425Z,1.25
2023-02-25T20:52:23.882Z,1.95
2023-02-25T20:54:50.499Z,1.33
2023-02-25T20:57:19.739Z,2.87
2023-02-25T20:59:46.505Z,1.90
2023-02-25T21:02:13.075Z,1.83
2023-02-25T21:04:39.767Z,1.13
2023-02-25T21:07:08.031Z,1.93
2023-02-25T21:09:34.852Z,2.13
2023-02-25T21:12:01.750Z,1.43
2023-02-25T21:14:28.301Z,1.33
2023-02-25T21:16:55.156Z,1.60
2023-02-25T21:19:23.172Z,2.90
2023-02-25T21:21:50.302Z,3.00
2023-02-25T21:24:18.937Z,2.57
2023-02-25T21:26:46.184Z,2.37
2023-02-25T21:29:14.571Z,1.40
2023-02-25T21:31:41.912Z,1.30
2023-02-25T21:34:11.684Z,1.50
2023-02-25T21:39:06.779Z,1.40
2023-02-25T21:41:36.346Z,1.83
2023-02-25T21:44:03.144Z,1.65
2023-02-25T21:46:29.720Z,1.13
2023-02-25T21:48:56.396Z,2.23
2023-02-25T21:51:25.071Z,1.83
2023-02-25T21:53:54.088Z,3.33
2023-02-25T21:56:21.246Z,2.65
2023-02-25T21:58:53.424Z,10.80
2023-02-25T22:01:22.019Z,3.17
2023-02-25T22:03:49.005Z,4.60
2023-02-25T22:06:15.866Z,2.37
2023-02-25T22:08:45.541Z,2.30
2023-02-25T22:13:39.459Z,2.77
2023-02-25T22:16:08.452Z,2.20
2023-02-25T22:18:35.414Z,1.58
2023-02-25T22:21:07.840Z,1.90
2023-02-25T22:23:34.869Z,2.23
2023-02-25T22:26:02.801Z,0.87
2023-02-25T22:28:29.865Z,1.37
2023-02-25T22:30:56.680Z,2.00
2023-02-25T22:33:24.690Z,3.27
2023-02-25T22:35:58.024Z,1.60
2023-02-25T22:38:27.219Z,1.80
2023-02-25T22:40:53.818Z,3.08
2023-02-25T22:43:20.363Z,2.30
2023-02-25T22:45:47.046Z,1.87
2023-02-25T22:48:13.932Z,3.33
2023-02-25T22:50:46.634Z,2.43
2023-02-25T22:53:13.260Z,1.50
2023-02-25T22:55:39.804Z,1.70
2023-02-25T22:58:06.399Z,1.57
2023-02-25T23:00:38.005Z,1.67
2023-02-25T23:03:05.844Z,1.83
2023-02-25T23:05:32.977Z,1.53
2023-02-25T23:08:01.841Z,1.53
2023-02-25T23:10:28.892Z,1.98
2023-02-25T23:12:57.605Z,3.33
2023-02-25T23:15:25.291Z,1.70
2023-02-25T23:17:52.411Z,2.50
2023-02-25T23:20:19.358Z,2.00
2023-02-25T23:22:45.943Z,1.47
2023-02-25T23:25:13.837Z,2.00
2023-02-25T23:27:40.403Z,1.30
2023-02-25T23:30:08.351Z,1.83
2023-02-25T23:32:35.448Z,1.43
2023-02-25T23:35:02.050Z,1.47
2023-02-25T23:37:30.638Z,2.47
2023-02-25T23:39:57.220Z,1.50
2023-02-25T23:42:25.293Z,1.37
2023-02-25T23:44:51.874Z,1.33
2023-02-25T23:47:19.489Z,1.03
2023-02-25T23:49:46.127Z,1.40
2023-02-25T23:52:12.792Z,1.57
2023-02-25T23:54:39.517Z,1.83
2023-02-25T23:57:06.654Z,0.90
2023-02-25T23:59:34.760Z,1.30
